Time;durP1;ratioP1;P1;durP2;ratioP2;P2;SDS_P1;SDS_P2;PMS_P1;PMS_P2;Temp;Humidity;BMP_temperature;BMP_pressure;BME280_temperature;BME280_humidity;BME280_pressure;Samples;Min_cycle;Max_cycle;Signal;HPM_P1;HPM_P2
2022/11/08 00:01:57;;;;;;;3.03;1.77;;;6.80;99.90;;;;;;5018787;28;20144;-85
2022/11/08 00:04:23;;;;;;;3.10;1.75;;;6.80;99.90;;;;;;5001684;28;20045;-86
2022/11/08 00:15:04;;;;;;;3.75;1.50;;;6.80;99.90;;;;;;5018414;28;20029;-85
2022/11/08 00:17:33;;;;;;;1.95;1.00;;;6.70;99.90;;;;;;5018097;28;20041;-85
2022/11/08 00:19:59;;;;;;;1.27;1.17;;;6.70;99.90;;;;;;5019049;28;20026;-85
2022/11/08 00:22:25;;;;;;;1.83;1.40;;;6.70;99.90;;;;;;5018393;28;20083;-86
2022/11/08 00:24:50;;;;;;;3.35;1.20;;;6.70;99.90;;;;;;5000171;28;20030;-86
2022/11/08 00:27:21;;;;;;;1.42;1.27;;;6.70;99.90;;;;;;5000945;28;20030;-85
2022/11/08 00:29:47;;;;;;;3.63;1.00;;;6.60;99.90;;;;;;5014599;28;20042;-86
2022/11/08 00:32:19;;;;;;;2.58;1.20;;;6.70;99.90;;;;;;5019730;28;20026;-86
2022/11/08 00:34:47;;;;;;;1.80;1.33;;;6.60;99.90;;;;;;5012944;28;20022;-86
2022/11/08 00:37:14;;;;;;;2.28;1.35;;;6.70;99.90;;;;;;5001760;28;20094;-86
2022/11/08 00:39:40;;;;;;;2.13;1.20;;;6.60;99.90;;;;;;4998462;28;20026;-86
2022/11/08 00:42:05;;;;;;;2.58;1.38;;;6.60;99.90;;;;;;5016303;28;20026;-86
2022/11/08 00:44:43;;;;;;;1.65;1.30;;;6.60;99.90;;;;;;5015485;28;20035;-86
2022/11/08 00:47:12;;;;;;;1.92;1.20;;;6.60;99.90;;;;;;5019467;28;20133;-86
2022/11/08 00:49:38;;;;;;;2.97;1.35;;;6.60;99.90;;;;;;5020284;28;20125;-86
2022/11/08 00:52:04;;;;;;;2.58;1.15;;;6.60;99.90;;;;;;5015299;28;20030;-87
2022/11/08 00:54:30;;;;;;;2.17;1.40;;;6.60;99.90;;;;;;5001005;28;20533;-86
2022/11/08 00:56:56;;;;;;;2.63;1.52;;;6.50;99.90;;;;;;5019398;28;20068;-86
2022/11/08 00:59:22;;;;;;;1.58;1.25;;;6.60;99.90;;;;;;5011132;28;20026;-86
2022/11/08 01:01:47;;;;;;;2.10;1.40;;;6.50;99.90;;;;;;5018915;28;20101;-87
2022/11/08 01:04:15;;;;;;;1.73;1.20;;;6.50;99.90;;;;;;5019689;28;20025;-87
2022/11/08 01:06:41;;;;;;;2.17;1.20;;;6.50;99.90;;;;;;5017654;28;20026;-87
2022/11/08 01:09:14;;;;;;;1.55;1.20;;;6.50;99.90;;;;;;5007291;28;20532;-86
2022/11/08 01:11:45;;;;;;;1.40;1.00;;;6.50;99.90;;;;;;5001744;28;20114;-86
2022/11/08 01:14:11;;;;;;;1.55;1.13;;;6.50;99.90;;;;;;5020503;28;20021;-86
2022/11/08 01:16:51;;;;;;;1.80;1.38;;;6.50;99.90;;;;;;5020756;28;20033;-86
2022/11/08 01:19:16;;;;;;;3.15;1.58;;;6.40;99.90;;;;;;5002555;28;20049;-86
2022/11/08 01:21:43;;;;;;;3.15;1.80;;;6.40;99.90;;;;;;5014867;28;20026;-86
2022/11/08 01:24:08;;;;;;;3.13;1.45;;;6.40;99.90;;;;;;5001224;28;20018;-86
2022/11/08 01:26:34;;;;;;;2.22;1.20;;;6.30;99.90;;;;;;5004082;28;20029;-86
2022/11/08 01:29:00;;;;;;;1.42;1.20;;;6.30;99.90;;;;;;5009295;28;20033;-85
2022/11/08 01:31:28;;;;;;;1.70;1.27;;;6.30;99.90;;;;;;5024665;28;20025;-85
2022/11/08 01:33:54;;;;;;;1.63;1.20;;;6.30;99.90;;;;;;5013555;28;20042;-86
2022/11/08 01:36:22;;;;;;;1.75;1.27;;;6.30;99.90;;;;;;5025942;28;20078;-85
2022/11/08 01:38:49;;;;;;;1.73;1.00;;;6.30;99.90;;;;;;5017764;28;20085;-86
2022/11/08 01:41:23;;;;;;;1.98;1.23;;;6.30;99.90;;;;;;5016705;28;20033;-85
2022/11/08 01:43:52;;;;;;;3.17;1.23;;;6.20;99.90;;;;;;5004960;28;20037;-85
2022/11/08 01:46:47;;;;;;;1.75;1.08;;;6.20;99.90;;;;;;5024941;28;20022;-85
2022/11/08 01:49:19;;;;;;;2.00;1.20;;;6.20;99.90;;;;;;5011721;28;20037;-88
2022/11/08 01:52:07;;;;;;;0.60;0.60;;;6.20;99.90;;;;;;5023567;28;20045;-88
2022/11/08 01:54:45;;;;;;;1.20;0.95;;;6.20;99.90;;;;;;4990754;28;20030;-85
2022/11/08 01:57:18;;;;;;;1.65;0.82;;;6.20;99.90;;;;;;5006349;28;20116;-84
2022/11/08 01:59:50;;;;;;;1.38;1.10;;;6.20;99.90;;;;;;5019312;28;20092;-84
2022/11/08 02:02:23;;;;;;;0.80;0.77;;;6.10;99.90;;;;;;5023225;28;20049;-86
2022/11/08 02:04:56;;;;;;;1.27;0.82;;;6.10;99.90;;;;;;5006073;28;20041;-85
2022/11/08 02:07:26;;;;;;;2.92;1.02;;;6.10;99.90;;;;;;5011890;28;20121;-85
2022/11/08 02:09:55;;;;;;;0.73;0.70;;;6.10;99.90;;;;;;5013966;28;20088;-86
2022/11/08 02:12:25;;;;;;;1.00;0.68;;;6.10;99.90;;;;;;5022612;28;20030;-84
2022/11/08 02:14:52;;;;;;;1.75;0.95;;;6.10;99.90;;;;;;5017068;28;20018;-85
2022/11/08 02:17:18;;;;;;;0.70;0.70;;;6.10;99.90;;;;;;5006229;28;20037;-85
2022/11/08 02:19:50;;;;;;;0.75;0.75;;;6.10;99.90;;;;;;5021095;28;20041;-85
2022/11/08 02:22:40;;;;;;;1.42;1.00;;;6.10;99.90;;;;;;5010737;28;20050;-86
2022/11/08 02:25:06;;;;;;;1.60;1.00;;;6.10;99.90;;;;;;5035592;23;20083;-79
2022/11/08 02:27:31;;;;;;;0.90;0.90;;;6.10;99.90;;;;;;5015062;28;20559;-79
2022/11/08 02:29:57;;;;;;;1.00;0.90;;;6.10;99.90;;;;;;5007059;28;20490;-79
2022/11/08 02:32:23;;;;;;;0.70;0.70;;;6.00;99.90;;;;;;5008584;28;20026;-79
2022/11/08 02:34:55;;;;;;;3.00;1.10;;;6.00;99.90;;;;;;5006056;28;20058;-79
2022/11/08 02:37:22;;;;;;;1.15;1.00;;;6.00;99.90;;;;;;5005176;28;20034;-79
2022/11/08 02:39:48;;;;;;;0.82;0.73;;;6.00;99.90;;;;;;5009100;28;20030;-79
2022/11/08 02:42:15;;;;;;;0.70;0.68;;;6.00;99.90;;;;;;5006402;28;20072;-80
2022/11/08 02:44:40;;;;;;;2.55;0.98;;;6.00;99.90;;;;;;5009968;28;20044;-79
2022/11/08 02:47:06;;;;;;;2.20;0.82;;;6.00;99.90;;;;;;5008074;28;20082;-80
2022/11/08 02:49:32;;;;;;;1.58;0.90;;;5.90;99.90;;;;;;5003348;28;20026;-80
2022/11/08 02:51:57;;;;;;;3.28;1.10;;;5.90;99.90;;;;;;5002318;28;20019;-80
2022/11/08 02:54:23;;;;;;;1.60;1.30;;;5.90;99.90;;;;;;5002248;28;20101;-79
2022/11/08 02:56:48;;;;;;;1.95;0.90;;;5.90;99.90;;;;;;5000903;28;20018;-79
2022/11/08 02:59:14;;;;;;;1.33;1.15;;;5.90;99.90;;;;;;4999317;28;20030;-80
2022/11/08 03:01:40;;;;;;;2.33;0.93;;;5.80;99.90;;;;;;5000762;28;20023;-80
2022/11/08 03:04:06;;;;;;;1.08;0.98;;;5.90;99.90;;;;;;5000467;28;20018;-80
2022/11/08 03:06:31;;;;;;;1.65;0.80;;;5.90;99.90;;;;;;4999925;28;20029;-80
2022/11/08 03:08:57;;;;;;;1.90;1.05;;;5.90;99.90;;;;;;4999405;28;20033;-79
2022/11/08 03:11:22;;;;;;;1.40;0.98;;;5.90;99.90;;;;;;4999279;28;20053;-79
2022/11/08 03:13:48;;;;;;;1.35;1.02;;;5.90;99.90;;;;;;4999336;28;20034;-79
2022/11/08 03:16:14;;;;;;;1.83;0.80;;;5.90;99.90;;;;;;4999021;28;20053;-79
2022/11/08 03:18:39;;;;;;;1.92;1.08;;;5.90;99.90;;;;;;4999440;28;20077;-80
2022/11/08 03:21:05;;;;;;;3.08;0.73;;;5.90;99.90;;;;;;4990899;28;20101;-80
2022/11/08 03:23:32;;;;;;;1.15;0.95;;;5.80;99.90;;;;;;4999754;28;20105;-80
2022/11/08 03:26:06;;;;;;;0.85;0.68;;;5.80;99.90;;;;;;4995516;28;20065;-79
2022/11/08 03:28:32;;;;;;;1.23;0.85;;;5.80;99.90;;;;;;4999351;28;20053;-79
2022/11/08 03:30:58;;;;;;;1.48;1.00;;;5.90;99.90;;;;;;4999290;28;20354;-80
2022/11/08 03:33:27;;;;;;;0.45;0.45;;;5.80;99.90;;;;;;4995284;28;20062;-81
2022/11/08 03:35:53;;;;;;;4.18;0.90;;;5.80;99.90;;;;;;5001647;28;20023;-80
2022/11/08 03:38:18;;;;;;;0.82;0.77;;;5.80;99.90;;;;;;5007355;28;20181;-78
2022/11/08 03:40:45;;;;;;;1.60;1.15;;;5.80;99.90;;;;;;4993153;28;20110;-80
2022/11/08 03:43:13;;;;;;;1.27;0.90;;;5.80;99.90;;;;;;4999538;28;20423;-80
2022/11/08 03:45:39;;;;;;;1.48;0.80;;;5.70;99.90;;;;;;5001139;28;20031;-79
2022/11/08 03:48:08;;;;;;;1.52;0.77;;;5.70;99.90;;;;;;4998155;28;20038;-80
2022/11/08 03:50:33;;;;;;;1.10;0.90;;;5.70;99.90;;;;;;4999202;28;20018;-80
2022/11/08 03:52:59;;;;;;;1.13;0.75;;;5.70;99.90;;;;;;4983730;28;20337;-80
2022/11/08 03:55:26;;;;;;;1.10;1.00;;;5.70;99.90;;;;;;5006061;28;20022;-79
2022/11/08 03:57:55;;;;;;;1.10;0.70;;;5.70;99.90;;;;;;5007808;28;20022;-79
2022/11/08 04:00:24;;;;;;;1.13;0.60;;;5.70;99.90;;;;;;4999701;28;20318;-80
2022/11/08 04:02:50;;;;;;;1.38;1.13;;;5.70;99.90;;;;;;5007144;28;20031;-80
2022/11/08 04:05:19;;;;;;;0.57;0.57;;;5.60;99.90;;;;;;4995407;28;20022;-80
2022/11/08 04:07:45;;;;;;;1.00;0.90;;;5.60;99.90;;;;;;5002071;28;20006;-80
2022/11/08 04:10:11;;;;;;;0.68;0.68;;;5.60;99.90;;;;;;4999319;28;20026;-80
2022/11/08 04:15:28;;;;;;;2.05;0.75;;;5.70;99.90;;;;;;4998252;28;20028;-79
2022/11/08 04:23:33;;;;;;;1.30;0.75;;;5.80;99.90;;;;;;5000598;28;20057;-80
2022/11/08 04:26:01;;;;;;;1.10;0.77;;;5.80;99.90;;;;;;5002544;28;20030;-81
2022/11/08 04:28:30;;;;;;;2.03;1.02;;;5.80;99.90;;;;;;4995037;28;20026;-81
2022/11/08 04:30:57;;;;;;;1.88;0.90;;;5.80;99.90;;;;;;4998342;28;20022;-80
2022/11/08 04:33:24;;;;;;;1.73;0.80;;;5.80;99.90;;;;;;4996318;28;20031;-80
2022/11/08 04:35:52;;;;;;;0.68;0.60;;;5.80;99.90;;;;;;4998818;28;20483;-80
2022/11/08 04:38:18;;;;;;;1.00;0.68;;;5.80;99.90;;;;;;5001088;28;20038;-80
2022/11/08 04:40:44;;;;;;;1.42;0.80;;;5.80;99.90;;;;;;4984613;28;20092;-80
2022/11/08 04:43:10;;;;;;;1.42;0.80;;;5.80;99.90;;;;;;4992117;28;20038;-79
2022/11/08 04:45:36;;;;;;;0.93;0.80;;;5.70;99.90;;;;;;4999332;28;20062;-79
2022/11/08 04:48:01;;;;;;;1.23;1.00;;;5.70;99.90;;;;;;4997434;28;20018;-80
2022/11/08 04:50:27;;;;;;;0.93;0.90;;;5.70;99.90;;;;;;4999629;28;20030;-80
2022/11/08 04:52:54;;;;;;;1.13;0.80;;;5.60;99.90;;;;;;4998731;28;20042;-80
2022/11/08 04:55:20;;;;;;;0.70;0.70;;;5.60;99.90;;;;;;4998046;28;20014;-80
2022/11/08 04:57:47;;;;;;;1.40;1.00;;;5.60;99.90;;;;;;4999197;28;20034;-80
2022/11/08 05:00:13;;;;;;;0.77;0.73;;;5.60;99.90;;;;;;4966540;28;20033;-79
2022/11/08 05:02:39;;;;;;;1.63;0.93;;;5.60;99.90;;;;;;4998713;28;20026;-80
2022/11/08 05:05:05;;;;;;;1.20;1.10;;;5.50;99.90;;;;;;5001611;28;20434;-82
2022/11/08 05:07:31;;;;;;;1.85;0.88;;;5.50;99.90;;;;;;4992315;28;20406;-80
2022/11/08 05:09:57;;;;;;;0.93;0.80;;;5.50;99.90;;;;;;5002816;28;20090;-80
2022/11/08 05:12:23;;;;;;;1.25;0.98;;;5.50;99.90;;;;;;5002302;28;20042;-80
2022/11/08 05:14:48;;;;;;;2.63;1.10;;;5.40;99.90;;;;;;5002379;28;20026;-79
2022/11/08 05:17:15;;;;;;;1.83;0.82;;;5.40;99.90;;;;;;5002571;28;20053;-80
2022/11/08 05:25:09;;;;;;;1.70;0.82;;;5.30;99.90;;;;;;5005268;28;20097;-79
2022/11/08 05:27:35;;;;;;;1.63;1.10;;;5.30;99.90;;;;;;5001043;28;20026;-80
2022/11/08 05:30:01;;;;;;;1.92;0.80;;;5.30;99.90;;;;;;5000563;28;20049;-80
2022/11/08 05:32:26;;;;;;;3.03;1.00;;;5.30;99.90;;;;;;5003707;28;20030;-80
2022/11/08 05:34:52;;;;;;;1.35;0.93;;;5.30;99.90;;;;;;5004240;28;20471;-80
2022/11/08 05:37:18;;;;;;;2.75;1.05;;;5.30;99.90;;;;;;4994190;28;20026;-80
2022/11/08 05:39:43;;;;;;;2.00;0.95;;;5.20;99.90;;;;;;5003050;28;20030;-80
2022/11/08 05:42:09;;;;;;;1.77;1.50;;;5.20;99.90;;;;;;5002828;28;20030;-80
2022/11/08 05:44:35;;;;;;;2.15;1.88;;;5.20;99.90;;;;;;5002492;28;20022;-79
2022/11/08 05:47:01;;;;;;;2.80;2.50;;;5.20;99.90;;;;;;5000347;28;20084;-80
2022/11/08 05:49:26;;;;;;;2.67;1.73;;;5.20;99.90;;;;;;5002085;28;20034;-80
2022/11/08 05:51:52;;;;;;;3.22;1.98;;;5.20;99.90;;;;;;5002029;28;20102;-80
2022/11/08 05:54:18;;;;;;;1.95;1.63;;;5.20;99.90;;;;;;4989176;28;20073;-80
2022/11/08 05:56:43;;;;;;;1.63;1.52;;;5.20;99.90;;;;;;4998097;28;20063;-80
2022/11/08 05:59:09;;;;;;;1.50;1.25;;;5.20;99.90;;;;;;4996724;28;20029;-80
2022/11/08 06:01:35;;;;;;;3.28;1.40;;;5.20;99.90;;;;;;4994673;28;20022;-80
2022/11/08 06:04:00;;;;;;;4.30;1.45;;;5.20;99.90;;;;;;4992190;28;20375;-81
2022/11/08 06:06:26;;;;;;;2.35;1.55;;;5.20;99.90;;;;;;5002951;28;20125;-78
2022/11/08 06:08:52;;;;;;;3.00;0.82;;;5.20;99.90;;;;;;4998787;28;20628;-79
2022/11/08 06:11:20;;;;;;;2.63;0.82;;;5.20;99.90;;;;;;4999269;28;20089;-78
2022/11/08 06:13:46;;;;;;;1.88;1.20;;;5.20;99.90;;;;;;4998105;28;20022;-79
2022/11/08 06:16:14;;;;;;;0.90;0.90;;;5.20;99.90;;;;;;4979997;28;20152;-79
2022/11/08 06:18:40;;;;;;;2.35;0.98;;;5.30;99.90;;;;;;4999217;28;20029;-79
2022/11/08 06:21:09;;;;;;;0.75;0.75;;;5.30;99.90;;;;;;5001326;28;20022;-79
2022/11/08 06:23:35;;;;;;;0.90;0.80;;;5.30;99.90;;;;;;4999338;28;20026;-79
2022/11/08 06:26:00;;;;;;;1.58;0.77;;;5.30;99.90;;;;;;4999098;28;20034;-80
2022/11/08 06:28:26;;;;;;;1.55;0.93;;;5.30;99.90;;;;;;4999643;28;20038;-80
2022/11/08 06:30:52;;;;;;;0.95;0.73;;;5.40;99.90;;;;;;5003400;28;20022;-79
2022/11/08 06:33:19;;;;;;;1.77;1.00;;;5.40;99.90;;;;;;5002046;28;20482;-78
2022/11/08 06:35:45;;;;;;;0.80;0.70;;;5.40;99.90;;;;;;5000674;28;20026;-79
2022/11/08 06:38:11;;;;;;;0.82;0.80;;;5.40;99.90;;;;;;4986413;28;20503;-79
2022/11/08 06:40:38;;;;;;;1.48;1.00;;;5.50;99.90;;;;;;5004562;28;20050;-79
2022/11/08 06:43:04;;;;;;;1.55;0.90;;;5.50;99.90;;;;;;4999384;28;20081;-79
2022/11/08 06:45:32;;;;;;;1.55;1.10;;;5.60;99.90;;;;;;5002549;28;20129;-80
2022/11/08 06:47:59;;;;;;;1.52;1.15;;;5.70;99.90;;;;;;4999604;28;20037;-80
2022/11/08 06:50:29;;;;;;;3.00;0.90;;;5.80;99.90;;;;;;5019945;28;20019;-81
2022/11/08 06:53:01;;;;;;;2.80;1.02;;;5.90;99.90;;;;;;5020263;28;20087;-81
2022/11/08 06:55:27;;;;;;;1.52;1.27;;;6.00;99.90;;;;;;5003577;28;20011;-79
2022/11/08 06:57:53;;;;;;;2.10;1.30;;;6.10;99.90;;;;;;5003324;28;20010;-81
2022/11/08 07:00:19;;;;;;;1.23;1.13;;;6.20;99.90;;;;;;4986876;28;20081;-79
2022/11/08 07:02:50;;;;;;;1.90;1.30;;;6.30;99.90;;;;;;5003805;28;20019;-79
2022/11/08 07:05:15;;;;;;;1.95;1.42;;;6.40;99.90;;;;;;5000592;28;20502;-79
2022/11/08 07:07:41;;;;;;;1.58;1.05;;;6.50;99.90;;;;;;4998294;28;20030;-79
2022/11/08 07:10:24;;;;;;;1.65;1.10;;;6.60;99.90;;;;;;5002913;28;20033;-79
2022/11/08 07:13:02;;;;;;;2.05;1.20;;;6.60;99.90;;;;;;4999639;28;20443;-80
2022/11/08 07:15:28;;;;;;;1.45;1.20;;;6.70;99.90;;;;;;5010793;28;20434;-80
2022/11/08 07:17:54;;;;;;;0.88;0.88;;;6.90;99.90;;;;;;4989711;28;20411;-78
2022/11/08 07:20:22;;;;;;;1.60;1.40;;;7.20;99.90;;;;;;4994199;28;20034;-79
2022/11/08 07:22:48;;;;;;;4.03;1.10;;;7.30;99.90;;;;;;5007576;28;20036;-78
2022/11/08 07:25:13;;;;;;;3.33;1.55;;;7.20;99.90;;;;;;5005361;28;20022;-79
2022/11/08 07:27:40;;;;;;;2.85;1.40;;;7.20;99.90;;;;;;4998344;28;20064;-78
2022/11/08 07:30:06;;;;;;;0.98;0.85;;;7.50;99.90;;;;;;4996594;28;20541;-78
2022/11/08 07:32:32;;;;;;;2.00;1.15;;;7.50;99.90;;;;;;4997919;28;20030;-78
2022/11/08 07:34:57;;;;;;;2.28;1.25;;;7.50;99.80;;;;;;5014297;28;20026;-78
2022/11/08 07:37:23;;;;;;;2.92;1.40;;;7.50;99.80;;;;;;5007207;28;20023;-80
2022/11/08 07:39:48;;;;;;;3.35;1.92;;;7.50;99.80;;;;;;4999468;28;20022;-80
2022/11/08 07:42:14;;;;;;;7.63;1.70;;;7.50;99.50;;;;;;5002359;28;20050;-79
2022/11/08 07:44:39;;;;;;;4.53;1.55;;;7.60;99.40;;;;;;5012217;28;20084;-79
2022/11/08 07:47:05;;;;;;;3.22;1.30;;;7.70;99.10;;;;;;5000213;28;20037;-79
2022/11/08 07:49:52;;;;;;;2.58;1.40;;;7.80;99.00;;;;;;5004131;28;20483;-79
2022/11/08 07:52:18;;;;;;;5.13;1.65;;;8.40;99.20;;;;;;5029296;28;20065;-78
2022/11/08 07:54:46;;;;;;;1.38;1.25;;;9.50;97.20;;;;;;5038292;28;20018;-78
2022/11/08 07:57:12;;;;;;;3.17;1.55;;;10.10;94.80;;;;;;5018304;28;20057;-79
2022/11/08 07:59:38;;;;;;;2.63;1.50;;;10.00;93.30;;;;;;4991516;28;20494;-79
2022/11/08 08:02:04;;;;;;;8.30;2.13;;;9.70;93.00;;;;;;4997340;28;20534;-80
2022/11/08 08:04:32;;;;;;;2.28;1.40;;;9.40;92.80;;;;;;4996262;28;20493;-79
2022/11/08 08:06:58;;;;;;;2.85;1.50;;;9.30;93.20;;;;;;4997488;28;20037;-80
2022/11/08 08:09:26;;;;;;;2.90;1.55;;;9.20;93.30;;;;;;4978269;28;20027;-79
2022/11/08 08:11:51;;;;;;;4.38;2.00;;;9.20;93.30;;;;;;4998322;28;20034;-80
2022/11/08 08:14:26;;;;;;;2.17;1.42;;;9.20;93.30;;;;;;4999859;28;20041;-79
2022/11/08 08:16:52;;;;;;;1.98;1.58;;;9.10;93.20;;;;;;4993866;28;20093;-78
2022/11/08 08:19:18;;;;;;;2.50;1.40;;;9.20;93.20;;;;;;4999827;28;20073;-79
2022/11/08 08:21:43;;;;;;;3.00;1.27;;;9.30;93.00;;;;;;4997606;28;20109;-79
2022/11/08 08:24:09;;;;;;;2.88;1.40;;;9.50;92.70;;;;;;5000303;28;20026;-79
2022/11/08 08:26:35;;;;;;;3.80;1.50;;;9.60;92.40;;;;;;5012416;28;20034;-80
2022/11/08 08:29:00;;;;;;;2.55;1.42;;;9.80;92.10;;;;;;5010866;28;20565;-79
2022/11/08 08:31:26;;;;;;;2.25;1.33;;;9.80;91.70;;;;;;5009498;28;20039;-79
2022/11/08 08:33:52;;;;;;;4.75;1.58;;;10.00;91.40;;;;;;4999380;28;20094;-78
2022/11/08 08:36:17;;;;;;;1.92;1.35;;;10.20;90.80;;;;;;4993535;28;20073;-79
2022/11/08 08:38:43;;;;;;;2.80;1.25;;;10.30;90.40;;;;;;4992763;28;20018;-79
2022/11/08 08:41:09;;;;;;;2.15;1.58;;;10.60;90.20;;;;;;4997742;28;20410;-79
2022/11/08 08:43:35;;;;;;;3.30;1.52;;;10.70;88.90;;;;;;5007772;28;20034;-79
2022/11/08 08:46:03;;;;;;;1.10;1.00;;;10.90;87.90;;;;;;4999750;28;20459;-80
2022/11/08 08:48:29;;;;;;;2.55;0.95;;;11.10;86.70;;;;;;4989454;28;20065;-80
2022/11/08 08:50:55;;;;;;;1.55;0.90;;;11.20;85.50;;;;;;5017391;28;20387;-79
2022/11/08 08:53:21;;;;;;;3.05;1.33;;;11.30;84.70;;;;;;5017164;28;20053;-81
2022/11/08 08:55:47;;;;;;;4.20;1.17;;;11.50;83.60;;;;;;4999499;28;20030;-80
2022/11/08 08:58:13;;;;;;;1.60;0.98;;;11.70;82.30;;;;;;5001533;28;20017;-80
2022/11/08 09:00:39;;;;;;;2.13;1.10;;;11.90;81.10;;;;;;5018459;28;20082;-80
2022/11/08 09:03:09;;;;;;;0.70;0.70;;;12.10;80.30;;;;;;5012651;28;20034;-79
2022/11/08 09:05:35;;;;;;;2.30;1.15;;;12.30;79.50;;;;;;4996409;28;20022;-79
2022/11/08 09:08:01;;;;;;;1.08;0.77;;;12.50;78.70;;;;;;4997037;28;20046;-80
2022/11/08 09:10:27;;;;;;;2.38;1.00;;;12.70;77.70;;;;;;4998958;28;20031;-80
2022/11/08 09:12:52;;;;;;;1.42;0.90;;;12.90;77.00;;;;;;4998191;28;20043;-79
2022/11/08 09:15:18;;;;;;;1.50;0.88;;;13.20;76.10;;;;;;4989248;28;20474;-79
2022/11/08 09:17:44;;;;;;;2.58;0.93;;;13.90;74.50;;;;;;5013031;28;20105;-79
2022/11/08 09:20:11;;;;;;;2.30;0.85;;;14.50;71.90;;;;;;5015689;28;20529;-79
2022/11/08 09:22:37;;;;;;;1.55;0.85;;;14.80;69.40;;;;;;4998635;28;20022;-79
2022/11/08 09:25:03;;;;;;;1.35;0.93;;;14.70;68.20;;;;;;5015049;28;20081;-79
2022/11/08 09:27:30;;;;;;;0.93;0.93;;;14.50;68.00;;;;;;4998869;28;20026;-78
2022/11/08 09:29:57;;;;;;;3.28;0.73;;;14.40;68.20;;;;;;5008846;28;20029;-79
2022/11/08 09:32:27;;;;;;;3.35;0.82;;;14.20;68.00;;;;;;5006928;28;20034;-79
2022/11/08 09:34:54;;;;;;;1.45;0.77;;;13.90;68.50;;;;;;5004954;28;20014;-79
2022/11/08 09:37:23;;;;;;;0.82;0.70;;;13.50;69.20;;;;;;4982023;28;20411;-79
2022/11/08 09:39:49;;;;;;;1.20;0.95;;;13.20;70.30;;;;;;4997061;28;20014;-79
2022/11/08 09:42:14;;;;;;;0.70;0.70;;;12.90;71.30;;;;;;4999685;28;20108;-80
2022/11/08 09:45:19;;;;;;;2.05;1.23;;;12.80;72.40;;;;;;4991410;28;20053;-81
2022/11/08 09:47:54;;;;;;;1.45;0.88;;;13.10;73.00;;;;;;4985067;28;20022;-81
2022/11/08 09:50:38;;;;;;;1.35;1.00;;;13.20;72.40;;;;;;4990598;28;20122;-80
2022/11/08 09:53:25;;;;;;;0.57;0.57;;;13.30;71.90;;;;;;5005276;28;20033;-80
2022/11/08 09:55:58;;;;;;;2.28;1.20;;;13.20;71.70;;;;;;5001561;28;20018;-81
2022/11/08 09:58:34;;;;;;;1.85;1.20;;;13.10;72.00;;;;;;5000201;28;20570;-78
2022/11/08 10:01:00;;;;;;;1.98;1.27;;;12.90;72.30;;;;;;4982848;28;20109;-79
2022/11/08 10:03:27;;;;;;;1.73;0.95;;;12.70;72.50;;;;;;4997844;28;20546;-78
2022/11/08 10:05:56;;;;;;;3.47;1.35;;;12.60;73.20;;;;;;5001917;28;20022;-83
2022/11/08 10:08:32;;;;;;;1.25;0.80;;;12.70;73.70;;;;;;4997371;28;20271;-78
2022/11/08 10:11:19;;;;;;;1.58;1.00;;;13.00;73.70;;;;;;4998652;28;20053;-78
2022/11/08 10:13:56;;;;;;;0.82;0.82;;;13.50;72.80;;;;;;4984401;28;20050;-79
2022/11/08 10:16:34;;;;;;;0.70;0.70;;;14.10;71.50;;;;;;4996822;28;20045;-78
2022/11/08 10:19:18;;;;;;;0.95;0.90;;;14.30;69.60;;;;;;4996703;28;20053;-79
2022/11/08 10:21:44;;;;;;;1.00;0.90;;;14.40;68.90;;;;;;5011240;28;20021;-80
2022/11/08 10:24:30;;;;;;;1.25;0.80;;;14.50;68.40;;;;;;5013939;28;20487;-78
2022/11/08 10:26:58;;;;;;;2.72;0.95;;;14.50;67.90;;;;;;4976632;28;20039;-78
2022/11/08 10:29:39;;;;;;;1.23;0.90;;;14.40;67.10;;;;;;4977779;28;20803;-79
2022/11/08 10:32:20;;;;;;;2.63;1.00;;;14.30;67.20;;;;;;4977439;28;20450;-79
2022/11/08 10:35:03;;;;;;;1.93;1.00;;;14.00;67.40;;;;;;4977229;28;20388;-79
2022/11/08 10:37:31;;;;;;;2.90;1.23;;;13.80;67.90;;;;;;4988577;28;20646;-78
2022/11/08 10:40:45;;;;;;;7.47;2.80;;;13.50;68.70;;;;;;4979500;28;20022;-80
2022/11/08 10:43:39;;;;;;;1.85;1.35;;;13.20;69.60;;;;;;4995050;28;20080;-79
2022/11/08 10:46:26;;;;;;;3.47;1.50;;;13.00;70.40;;;;;;4996467;28;20072;-81
2022/11/08 10:48:52;;;;;;;2.90;1.45;;;12.80;70.80;;;;;;4997387;28;20034;-78
2022/11/08 10:51:17;;;;;;;1.60;1.00;;;12.80;71.40;;;;;;5004987;28;20023;-78
2022/11/08 10:53:43;;;;;;;3.35;1.20;;;12.80;71.80;;;;;;4996431;28;20026;-80
2022/11/08 10:56:09;;;;;;;3.67;1.73;;;12.80;72.20;;;;;;4997198;28;20026;-79
2022/11/08 10:58:40;;;;;;;3.25;1.85;;;12.80;72.80;;;;;;4987611;28;20536;-78
2022/11/08 11:01:21;;;;;;;1.87;1.20;;;12.90;73.40;;;;;;4998078;28;20077;-79
2022/11/08 11:03:49;;;;;;;2.63;1.10;;;13.10;73.20;;;;;;5002168;28;20049;-78
2022/11/08 11:06:29;;;;;;;6.28;1.30;;;13.30;72.10;;;;;;5000193;28;20399;-78
2022/11/08 11:09:01;;;;;;;1.92;0.95;;;13.50;71.20;;;;;;5000726;28;20034;-78
2022/11/08 11:11:36;;;;;;;0.88;0.75;;;13.70;70.60;;;;;;4999507;28;20403;-79
2022/11/08 11:14:09;;;;;;;1.88;1.40;;;13.90;69.10;;;;;;4993863;28;20100;-79
2022/11/08 11:16:36;;;;;;;2.80;1.20;;;13.90;68.60;;;;;;5003166;28;20089;-80
2022/11/08 11:19:05;;;;;;;1.30;0.80;;;14.00;68.10;;;;;;5001739;28;20053;-80
2022/11/08 11:21:39;;;;;;;1.48;0.90;;;14.10;67.40;;;;;;4996082;28;20414;-79
2022/11/08 11:24:08;;;;;;;2.92;1.20;;;14.30;67.20;;;;;;4996127;28;20038;-79
2022/11/08 11:26:59;;;;;;;2.60;1.40;;;14.50;66.80;;;;;;4999392;28;20034;-81
2022/11/08 11:29:36;;;;;;;3.92;1.10;;;14.70;66.80;;;;;;4955158;28;20081;-79
2022/11/08 11:32:33;;;;;;;4.63;1.60;;;14.90;66.00;;;;;;4993984;28;20503;-80
2022/11/08 11:35:01;;;;;;;1.35;1.25;;;15.00;64.90;;;;;;4980230;28;20191;-79
2022/11/08 11:37:35;;;;;;;2.85;1.63;;;15.00;64.10;;;;;;5003880;28;20026;-80
2022/11/08 11:40:11;;;;;;;1.98;1.10;;;14.80;64.30;;;;;;4980810;28;20026;-79
2022/11/08 11:42:40;;;;;;;3.10;0.77;;;14.80;64.80;;;;;;4996825;28;20026;-79
2022/11/08 11:45:13;;;;;;;4.00;1.23;;;14.90;64.10;;;;;;4996293;28;20364;-79
2022/11/08 11:47:49;;;;;;;2.08;1.10;;;14.90;64.20;;;;;;4977902;28;20026;-79
2022/11/08 11:50:38;;;;;;;2.70;1.00;;;15.00;65.20;;;;;;4996454;28;20030;-81
2022/11/08 11:53:26;;;;;;;2.08;1.10;;;15.10;64.60;;;;;;5001269;28;20035;-79
2022/11/08 11:56:26;;;;;;;5.38;1.60;;;15.10;64.40;;;;;;4997353;28;20499;-79
2022/11/08 11:59:27;;;;;;;3.40;1.55;;;15.20;64.40;;;;;;5000547;28;20073;-79
2022/11/08 12:02:17;;;;;;;2.30;1.05;;;15.20;64.60;;;;;;4999106;28;20031;-79
2022/11/08 12:05:21;;;;;;;3.20;0.93;;;15.20;64.80;;;;;;4987600;28;20022;-80
2022/11/08 12:08:25;;;;;;;1.23;1.13;;;15.20;65.30;;;;;;4997568;28;20038;-78
2022/11/08 12:11:21;;;;;;;2.63;1.70;;;15.30;65.80;;;;;;4994241;28;20049;-80
2022/11/08 12:14:11;;;;;;;2.03;1.02;;;15.30;66.40;;;;;;4996464;28;20034;-81
2022/11/08 12:17:08;;;;;;;1.20;1.10;;;15.30;66.80;;;;;;4988357;28;20018;-80
2022/11/08 12:20:20;;;;;;;1.13;1.02;;;15.30;66.10;;;;;;4994878;28;20113;-79
2022/11/08 12:23:37;;;;;;;1.42;1.25;;;15.40;65.80;;;;;;4947432;28;20034;-80
2022/11/08 12:26:06;;;;;;;2.65;1.58;;;15.40;65.10;;;;;;4969729;28;20057;-79
2022/11/08 12:29:02;;;;;;;1.75;1.17;;;15.30;64.80;;;;;;4988016;28;20040;-80
2022/11/08 12:31:30;;;;;;;2.00;1.13;;;15.40;66.00;;;;;;4995377;28;20038;-81
2022/11/08 12:34:20;;;;;;;2.40;0.95;;;15.50;66.10;;;;;;4995373;28;20053;-79
2022/11/08 12:37:04;;;;;;;2.15;1.05;;;15.50;65.80;;;;;;4994472;28;20029;-78
2022/11/08 12:39:35;;;;;;;2.33;1.10;;;15.50;65.80;;;;;;4995233;28;20030;-80
2022/11/08 12:42:41;;;;;;;1.65;1.08;;;15.50;65.60;;;;;;4995795;28;20034;-78
2022/11/08 12:45:31;;;;;;;3.75;1.13;;;15.60;66.00;;;;;;4975558;28;20030;-79
2022/11/08 12:48:30;;;;;;;1.05;0.73;;;15.80;64.50;;;;;;4994816;28;20062;-79
2022/11/08 12:51:11;;;;;;;3.05;1.20;;;15.90;64.50;;;;;;5000850;28;20019;-80
2022/11/08 12:53:54;;;;;;;3.75;1.33;;;16.00;64.50;;;;;;4995373;28;20036;-80
2022/11/08 12:56:44;;;;;;;1.85;1.08;;;16.00;64.90;;;;;;4998750;28;20042;-79
2022/11/08 12:59:38;;;;;;;4.25;1.40;;;16.00;65.00;;;;;;4974697;28;20521;-81
2022/11/08 13:02:12;;;;;;;2.47;1.40;;;16.10;64.00;;;;;;4989031;28;20137;-78
2022/11/08 13:04:40;;;;;;;8.77;1.70;;;16.20;62.90;;;;;;4994938;28;20365;-78
2022/11/08 13:07:29;;;;;;;5.45;2.38;;;16.40;62.50;;;;;;4990902;28;20127;-78
2022/11/08 13:10:18;;;;;;;11.77;2.83;;;16.50;61.00;;;;;;5018131;28;20038;-79
2022/11/08 13:13:22;;;;;;;3.83;2.05;;;16.70;60.40;;;;;;5017847;28;20082;-79
2022/11/08 13:16:11;;;;;;;9.15;2.08;;;16.80;60.70;;;;;;5016723;28;20017;-82
2022/11/08 13:18:54;;;;;;;3.13;1.95;;;16.90;61.20;;;;;;5015631;28;20033;-80
2022/11/08 13:21:29;;;;;;;7.97;2.25;;;16.90;61.90;;;;;;4970112;28;20090;-79
2022/11/08 13:24:00;;;;;;;5.25;1.75;;;16.90;62.40;;;;;;4975723;28;20062;-78
2022/11/08 13:26:29;;;;;;;7.68;2.00;;;16.80;63.20;;;;;;4969931;28;20050;-77
2022/11/08 13:29:18;;;;;;;7.55;1.90;;;16.80;64.00;;;;;;4998832;28;20093;-78
2022/11/08 13:31:55;;;;;;;7.03;1.92;;;16.80;64.90;;;;;;4997676;28;20510;-79
2022/11/08 13:34:23;;;;;;;5.28;1.70;;;16.60;65.40;;;;;;4964613;28;20034;-79
2022/11/08 13:37:12;;;;;;;6.07;2.00;;;16.50;66.30;;;;;;4996998;28;20375;-81